Time;durP1;ratioP1;P1;durP2;ratioP2;P2;SDS_P1;SDS_P2;PMS_P1;PMS_P2;Temp;Humidity;BMP_temperature;BMP_pressure;BME280_temperature;BME280_humidity;BME280_pressure;Samples;Min_cycle;Max_cycle;Signal;HPM_P1;HPM_P2
2021/06/07 00:00:55;;;;;;;1.83;1.30;;;;;;;30.33;22.69;98483.72;5095923;28;20039;-85
2021/06/07 00:03:21;;;;;;;1.10;1.00;;;;;;;30.17;22.54;98477.47;5096073;28;20028;-86
2021/06/07 00:05:47;;;;;;;2.28;1.15;;;;;;;30.36;21.99;98479.94;5095996;28;20480;-86
2021/06/07 00:08:13;;;;;;;1.17;1.08;;;;;;;30.51;21.67;98483.75;5095252;28;20039;-86
2021/06/07 00:10:39;;;;;;;1.42;1.02;;;;;;;30.61;21.67;98485.34;5094670;28;20067;-86
2021/06/07 00:13:06;;;;;;;1.40;0.98;;;;;;;30.02;22.17;98477.25;5096251;28;20043;-85
2021/06/07 00:15:33;;;;;;;3.83;0.90;;;;;;;29.74;23.12;98476.28;5096312;28;20062;-85
2021/06/07 00:18:01;;;;;;;1.23;0.90;;;;;;;29.81;22.70;98478.09;5094011;28;20500;-86
2021/06/07 00:20:38;;;;;;;1.10;0.90;;;;;;;29.53;23.55;98481.97;5093937;28;20143;-86
2021/06/07 00:23:05;;;;;;;1.95;0.90;;;;;;;29.56;23.07;98484.69;5095972;28;20119;-86
2021/06/07 00:25:32;;;;;;;1.50;1.23;;;;;;;29.84;22.92;98477.97;5096987;28;20491;-86
2021/06/07 00:27:58;;;;;;;1.20;1.10;;;;;;;29.55;23.27;98483.09;5116629;28;20043;-86
2021/06/07 00:30:25;;;;;;;2.05;1.30;;;;;;;29.62;22.61;98485.66;5097235;28;20040;-85
2021/06/07 00:32:52;;;;;;;1.40;1.00;;;;;;;29.90;22.64;98476.09;5097117;28;20023;-86
2021/06/07 00:35:23;;;;;;;1.83;1.27;;;;;;;29.98;22.52;98488.72;5076613;28;20099;-86
2021/06/07 00:37:50;;;;;;;1.00;0.90;;;;;;;29.88;22.19;98480.63;5075681;28;20504;-85
2021/06/07 00:40:18;;;;;;;1.85;1.40;;;;;;;30.06;22.17;98475.84;5092166;28;20032;-85
2021/06/07 00:42:45;;;;;;;1.35;1.17;;;;;;;30.08;22.04;98476.16;5096051;28;20119;-86
2021/06/07 00:45:17;;;;;;;0.98;0.88;;;;;;;30.11;22.34;98476.53;5083807;28;20028;-86
2021/06/07 00:47:44;;;;;;;1.08;0.98;;;;;;;30.22;21.69;98474.03;5090105;28;20071;-86
2021/06/07 00:50:12;;;;;;;1.35;0.90;;;;;;;30.43;22.00;98476.81;5094973;28;20507;-86
2021/06/07 00:53:00;;;;;;;1.38;1.27;;;;;;;29.93;22.22;98471.53;5095222;28;20028;-86
2021/06/07 00:55:28;;;;;;;1.00;0.77;;;;;;;30.07;22.24;98470.97;5095069;28;20790;-86
2021/06/07 00:57:55;;;;;;;1.50;0.90;;;;;;;29.87;22.49;98468.53;5094142;28;20077;-86
2021/06/07 01:00:23;;;;;;;1.85;1.02;;;;;;;30.01;22.38;98481.34;5094097;28;20391;-85
2021/06/07 01:02:49;;;;;;;1.10;0.98;;;;;;;30.11;22.02;98468.78;5094175;28;20039;-86
2021/06/07 01:05:15;;;;;;;1.20;1.10;;;;;;;30.34;22.00;98476.75;5094521;28;20503;-86
2021/06/07 01:07:42;;;;;;;0.95;0.80;;;;;;;30.51;21.49;98475.25;5094643;28;20028;-86
2021/06/07 01:10:09;;;;;;;5.10;2.97;;;;;;;30.54;21.43;98470.69;5093371;28;20052;-86
2021/06/07 01:12:35;;;;;;;1.00;0.90;;;;;;;30.20;21.51;98474.47;5094468;28;20036;-85
2021/06/07 01:15:05;;;;;;;1.23;1.10;;;;;;;30.19;21.64;98474.97;5094528;28;20050;-86
2021/06/07 01:17:31;;;;;;;1.38;0.90;;;;;;;30.35;21.44;98480.41;5094003;28;20036;-86
2021/06/07 01:19:57;;;;;;;1.42;1.00;;;;;;;30.42;21.16;98471.59;5094270;28;20534;-85
2021/06/07 01:22:23;;;;;;;1.95;0.90;;;;;;;30.44;21.48;98475.53;5094045;28;20372;-86
2021/06/07 01:24:49;;;;;;;1.20;0.82;;;;;;;30.44;21.23;98469.09;5094174;28;20430;-85
2021/06/07 01:27:15;;;;;;;1.02;0.90;;;;;;;30.26;21.36;98458.47;5094326;28;20067;-85
2021/06/07 01:29:41;;;;;;;1.38;1.02;;;;;;;30.30;21.61;98472.47;5093676;28;20428;-86
2021/06/07 01:32:08;;;;;;;1.25;0.90;;;;;;;30.32;21.38;98459.41;5094301;28;20040;-86
2021/06/07 01:34:34;;;;;;;1.48;1.02;;;;;;;30.23;21.17;98456.56;5094116;28;20455;-86
2021/06/07 01:37:01;;;;;;;0.80;0.80;;;;;;;30.49;20.79;98462.81;5094051;28;20072;-86
2021/06/07 01:39:27;;;;;;;1.20;0.93;;;;;;;30.55;20.47;98461.72;5092392;28;20053;-86
2021/06/07 01:41:55;;;;;;;1.30;1.00;;;;;;;30.29;21.32;98456.75;5093710;28;20063;-86
2021/06/07 01:44:22;;;;;;;1.15;0.93;;;;;;;29.97;21.71;98460.84;5092300;28;20127;-86
2021/06/07 01:46:48;;;;;;;0.80;0.80;;;;;;;30.14;21.11;98462.19;5093165;28;20032;-86
2021/06/07 01:49:16;;;;;;;1.42;0.82;;;;;;;30.39;21.06;98466.84;5093547;28;20036;-86
2021/06/07 01:51:43;;;;;;;2.17;1.00;;;;;;;30.07;21.18;98457.63;5091831;28;20403;-86
2021/06/07 01:54:09;;;;;;;1.02;0.88;;;;;;;29.74;21.36;98458.53;5090935;28;20470;-86
2021/06/07 01:56:35;;;;;;;1.23;0.80;;;;;;;29.67;21.30;98453.94;5091881;28;20514;-86
2021/06/07 01:59:02;;;;;;;1.65;1.48;;;;;;;29.13;22.99;98457.16;5093549;28;20070;-86
2021/06/07 02:01:29;;;;;;;1.20;0.93;;;;;;;29.29;22.15;98464.72;5092341;28;20065;-87
2021/06/07 02:03:55;;;;;;;0.82;0.82;;;;;;;29.42;21.91;98456.94;5093505;28;20047;-87
2021/06/07 02:06:24;;;;;;;1.20;0.88;;;;;;;29.48;22.12;98469.22;5088520;28;20099;-87
2021/06/07 02:08:51;;;;;;;1.00;0.80;;;;;;;29.47;21.85;98458.38;5094473;28;20121;-86
2021/06/07 02:11:26;;;;;;;1.80;1.20;;;;;;;29.44;22.12;98457.25;5093832;28;20074;-86
2021/06/07 02:13:57;;;;;;;1.88;1.23;;;;;;;29.59;21.52;98455.47;5093970;28;20021;-86
2021/06/07 02:16:26;;;;;;;1.45;0.90;;;;;;;29.82;21.18;98457.03;5093122;28;20488;-86
2021/06/07 02:18:53;;;;;;;0.80;0.70;;;;;;;30.13;20.70;98457.78;5093069;28;20411;-87
2021/06/07 02:21:22;;;;;;;0.60;0.60;;;;;;;30.33;20.86;98458.22;5092843;28;20555;-87
2021/06/07 02:23:49;;;;;;;1.05;0.77;;;;;;;30.19;21.09;98447.44;5092211;28;20031;-87
2021/06/07 02:26:15;;;;;;;1.05;0.88;;;;;;;29.89;21.36;98451.88;5091743;28;20552;-86
2021/06/07 02:28:53;;;;;;;1.23;0.90;;;;;;;29.83;21.13;98458.59;5092871;28;20387;-86
2021/06/07 02:31:20;;;;;;;3.08;1.10;;;;;;;30.08;21.20;98441.41;5092721;28;20472;-86
2021/06/07 02:33:52;;;;;;;1.73;1.00;;;;;;;30.22;20.72;98443.66;5091488;28;20032;-85
2021/06/07 02:36:20;;;;;;;2.17;0.80;;;;;;;30.40;20.60;98437.28;5092712;28;20032;-86
2021/06/07 02:38:46;;;;;;;0.77;0.70;;;;;;;29.93;21.32;98443.22;5092811;28;20054;-86
2021/06/07 02:41:13;;;;;;;1.08;0.90;;;;;;;29.72;21.12;98441.22;5090800;28;20491;-86
2021/06/07 02:43:39;;;;;;;1.15;0.82;;;;;;;29.92;21.38;98433.19;5090623;28;20100;-87
2021/06/07 02:46:06;;;;;;;0.95;0.85;;;;;;;30.03;20.81;98442.81;5091028;28;20476;-87
2021/06/07 02:48:33;;;;;;;1.95;0.80;;;;;;;30.25;20.80;98441.91;5092395;28;20055;-86
2021/06/07 02:50:59;;;;;;;1.00;0.75;;;;;;;30.44;20.88;98446.41;5092114;28;20044;-87
2021/06/07 02:53:26;;;;;;;1.25;0.90;;;;;;;30.56;20.29;98437.78;5092539;28;20024;-87
2021/06/07 02:55:53;;;;;;;1.02;0.90;;;;;;;30.65;20.22;98440.63;5092584;28;20032;-86
2021/06/07 02:58:21;;;;;;;1.75;1.08;;;;;;;30.47;20.67;98457.63;5084518;28;20088;-86
2021/06/07 03:00:58;;;;;;;1.05;0.80;;;;;;;30.01;20.99;98448.13;5092186;28;20036;-85
2021/06/07 03:03:25;;;;;;;1.23;1.02;;;;;;;30.06;21.28;98449.56;5090319;28;20029;-85
2021/06/07 03:05:52;;;;;;;1.15;0.95;;;;;;;30.35;20.76;98452.84;5091409;28;20028;-85
2021/06/07 03:08:21;;;;;;;1.48;1.00;;;;;;;30.59;20.63;98447.41;5092703;28;20480;-85
2021/06/07 03:10:50;;;;;;;1.27;0.90;;;;;;;30.07;20.62;98454.00;5091750;28;20035;-86
2021/06/07 03:13:18;;;;;;;5.18;1.05;;;;;;;29.85;21.00;98458.94;5092367;28;20036;-86
2021/06/07 03:15:44;;;;;;;1.52;1.13;;;;;;;29.04;22.46;98457.09;5090967;28;20114;-85
2021/06/07 03:18:11;;;;;;;1.23;0.85;;;;;;;28.40;23.33;98460.53;5090650;28;20420;-85
2021/06/07 03:20:38;;;;;;;1.05;0.90;;;;;;;29.19;22.19;98461.00;5091891;28;20032;-85
2021/06/07 03:23:08;;;;;;;1.83;1.08;;;;;;;29.78;22.09;98462.06;5091805;28;20060;-85
2021/06/07 03:25:34;;;;;;;0.80;0.80;;;;;;;29.92;21.83;98464.31;5092634;28;20024;-85
2021/06/07 03:28:00;;;;;;;0.80;0.80;;;;;;;30.46;21.06;98463.72;5091838;28;22517;-85
2021/06/07 03:30:27;;;;;;;1.58;1.40;;;;;;;30.50;20.88;98470.06;5091152;28;20064;-85
2021/06/07 03:32:54;;;;;;;1.75;1.00;;;;;;;30.24;21.89;98463.81;5092043;28;20039;-85
2021/06/07 03:35:21;;;;;;;1.75;0.80;;;;;;;30.48;21.62;98467.69;5092171;28;20376;-85
2021/06/07 03:37:48;;;;;;;1.17;1.08;;;;;;;30.91;21.90;98463.06;5091771;28;20032;-85
2021/06/07 03:40:21;;;;;;;1.55;1.25;;;;;;;30.99;21.60;98467.16;5091649;28;20036;-85
2021/06/07 03:42:48;;;;;;;2.15;1.27;;;;;;;31.47;21.28;98474.72;5091337;28;20033;-86
2021/06/07 03:45:15;;;;;;;1.30;1.20;;;;;;;31.80;20.87;98467.09;5092304;28;20034;-85
2021/06/07 03:47:43;;;;;;;1.20;1.10;;;;;;;32.15;20.99;98469.50;5092102;28;20036;-85
2021/06/07 03:50:11;;;;;;;2.03;1.58;;;;;;;32.52;20.45;98468.88;5092169;28;20043;-86
2021/06/07 03:52:38;;;;;;;1.67;1.40;;;;;;;32.79;20.82;98476.44;5092214;28;20032;-86
2021/06/07 03:55:07;;;;;;;1.73;1.10;;;;;;;32.86;20.68;98473.22;5091625;28;20047;-86
2021/06/07 03:57:34;;;;;;;1.98;1.42;;;;;;;33.15;20.06;98476.19;5091757;28;20082;-86
2021/06/07 04:00:00;;;;;;;1.58;1.45;;;;;;;33.41;20.54;98477.22;5091834;28;20043;-86
2021/06/07 04:02:26;;;;;;;3.08;1.30;;;;;;;33.65;20.55;98479.22;5092282;28;20443;-86
2021/06/07 04:04:52;;;;;;;1.40;1.30;;;;;;;33.72;19.66;98478.84;5091503;28;20100;-85
2021/06/07 04:07:18;;;;;;;1.30;1.13;;;;;;;33.55;19.72;98483.44;5084239;28;20119;-85
2021/06/07 04:09:44;;;;;;;1.27;1.17;;;;;;;33.18;19.85;98486.59;5094067;28;20020;-85
2021/06/07 04:12:11;;;;;;;1.58;1.20;;;;;;;32.69;20.16;98492.00;5095213;28;20043;-86
2021/06/07 04:14:40;;;;;;;1.55;1.30;;;;;;;32.50;21.04;98491.31;5095361;28;20052;-86
2021/06/07 04:17:07;;;;;;;3.35;1.63;;;;;;;32.30;20.94;98488.22;5093707;28;20119;-85
2021/06/07 04:19:33;;;;;;;1.40;1.30;;;;;;;32.28;21.50;98496.44;5090953;28;20143;-86
2021/06/07 04:21:59;;;;;;;1.63;1.52;;;;;;;32.30;21.49;98487.44;5095348;28;20459;-86
2021/06/07 04:24:25;;;;;;;1.70;1.52;;;;;;;32.26;21.57;98493.28;5094133;28;20522;-86
2021/06/07 04:26:51;;;;;;;1.83;1.48;;;;;;;32.26;21.27;98493.28;5091523;28;20101;-85
2021/06/07 04:29:20;;;;;;;2.15;1.17;;;;;;;32.36;21.39;98488.34;5094686;28;20032;-86
2021/06/07 04:31:49;;;;;;;1.42;1.15;;;;;;;32.58;21.38;98503.13;5095084;28;20572;-86
2021/06/07 04:34:15;;;;;;;1.80;1.40;;;;;;;32.40;21.13;98488.94;5093924;28;20064;-85
2021/06/07 04:36:41;;;;;;;1.90;1.45;;;;;;;32.32;21.08;98487.75;5088525;28;20044;-85
2021/06/07 04:39:07;;;;;;;1.52;1.42;;;;;;;32.47;21.44;98483.72;5090932;28;20129;-86
2021/06/07 04:41:43;;;;;;;1.90;1.23;;;;;;;32.76;21.45;98497.31;5094879;28;20105;-86
2021/06/07 04:44:09;;;;;;;1.33;1.15;;;;;;;33.14;21.32;98494.53;5092152;28;20430;-86
2021/06/07 04:46:35;;;;;;;1.20;1.10;;;;;;;33.53;20.73;98489.63;5091631;28;20395;-86
2021/06/07 04:49:01;;;;;;;1.67;1.48;;;;;;;33.90;21.33;98484.34;5093630;28;20075;-87
2021/06/07 04:51:27;;;;;;;1.83;1.23;;;;;;;34.19;20.46;98492.09;5087623;28;20032;-88
2021/06/07 04:53:53;;;;;;;1.70;1.55;;;;;;;33.99;20.62;98495.63;5092545;28;20103;-88
2021/06/07 04:56:19;;;;;;;1.52;1.42;;;;;;;33.92;21.31;98484.63;5094613;28;20035;-87
2021/06/07 04:58:45;;;;;;;1.98;1.65;;;;;;;34.11;21.19;98490.94;5093118;28;20028;-87
2021/06/07 05:01:13;;;;;;;2.33;1.58;;;;;;;34.38;21.30;98499.16;5092619;28;20024;-86
2021/06/07 05:03:39;;;;;;;1.90;1.63;;;;;;;34.39;20.90;98492.94;5092105;28;20028;-87
2021/06/07 05:06:05;;;;;;;5.50;1.40;;;;;;;34.53;21.69;98502.78;5087659;28;20040;-85
2021/06/07 05:08:32;;;;;;;2.25;1.30;;;;;;;34.68;20.13;98497.81;5079812;28;20032;-87
2021/06/07 05:11:02;;;;;;;1.05;0.98;;;;;;;34.79;20.37;98503.66;5082082;28;20082;-88
2021/06/07 05:13:28;;;;;;;2.42;1.08;;;;;;;34.95;20.09;98500.25;5091801;28;20043;-86
2021/06/07 05:15:55;;;;;;;3.63;0.90;;;;;;;34.70;19.94;98501.72;5090092;28;20036;-86
2021/06/07 05:18:22;;;;;;;2.75;1.10;;;;;;;34.26;20.65;98512.44;5093606;28;20058;-88
2021/06/07 05:20:48;;;;;;;1.65;0.82;;;;;;;34.67;20.41;98505.59;5093010;28;20040;-87
2021/06/07 05:23:15;;;;;;;1.20;1.00;;;;;;;35.37;20.19;98505.47;5093065;28;20042;-87
2021/06/07 05:25:43;;;;;;;1.00;0.90;;;;;;;35.99;19.38;98502.78;5091351;28;20078;-84
2021/06/07 05:28:12;;;;;;;1.30;0.88;;;;;;;36.35;19.66;98509.06;5090031;28;20040;-84
2021/06/07 05:30:41;;;;;;;0.95;0.80;;;;;;;36.81;18.86;98512.50;5090487;28;20066;-83
2021/06/07 05:33:08;;;;;;;1.02;0.90;;;;;;;36.98;19.17;98510.56;5092351;28;20028;-85
2021/06/07 05:35:37;;;;;;;2.72;0.88;;;;;;;36.99;19.11;98512.13;5090780;28;20039;-84
2021/06/07 05:38:05;;;;;;;0.90;0.90;;;;;;;37.00;18.89;98516.53;5088850;28;20024;-89
2021/06/07 05:40:32;;;;;;;2.10;1.00;;;;;;;36.85;19.74;98513.06;5092731;28;20032;-90
2021/06/07 05:42:58;;;;;;;1.02;1.00;;;;;;;36.57;19.64;98515.75;5093491;28;20115;-85
2021/06/07 05:45:28;;;;;;;1.02;0.80;;;;;;;36.72;19.92;98507.00;5088767;28;20111;-87
2021/06/07 05:47:57;;;;;;;0.95;0.88;;;;;;;37.02;19.47;98522.53;5084746;28;20124;-87
2021/06/07 05:50:24;;;;;;;0.90;0.73;;;;;;;37.35;19.03;98519.03;5088080;28;20074;-85
2021/06/07 05:52:51;;;;;;;1.25;0.93;;;;;;;37.49;18.93;98518.06;5093996;28;20041;-86
2021/06/07 05:55:20;;;;;;;1.00;0.77;;;;;;;37.44;19.32;98515.22;5093616;28;20043;-85
2021/06/07 05:57:51;;;;;;;1.45;0.98;;;;;;;37.18;18.14;98516.09;5094380;28;20488;-85
2021/06/07 06:00:20;;;;;;;1.85;0.75;;;;;;;37.26;19.43;98520.06;5088979;28;20044;-85
2021/06/07 06:02:47;;;;;;;0.70;0.60;;;;;;;37.37;18.99;98517.25;5085976;28;20036;-85
2021/06/07 06:05:14;;;;;;;0.80;0.70;;;;;;;37.53;18.83;98518.59;5088424;28;20124;-86
2021/06/07 06:07:41;;;;;;;0.63;0.60;;;;;;;37.72;18.70;98518.91;5093275;28;20032;-86
2021/06/07 06:10:07;;;;;;;0.80;0.80;;;;;;;37.63;17.48;98519.16;5082145;28;20154;-86
2021/06/07 06:12:34;;;;;;;0.70;0.70;;;;;;;37.19;17.86;98525.50;5085167;28;20107;-86
2021/06/07 06:15:00;;;;;;;1.30;0.88;;;;;;;36.64;18.52;98525.94;5080088;28;20029;-85
2021/06/07 06:17:26;;;;;;;1.23;0.68;;;;;;;36.34;18.91;98534.00;5088854;28;20040;-85
2021/06/07 06:19:52;;;;;;;0.85;0.60;;;;;;;36.54;19.38;98538.88;5085819;28;20119;-85
2021/06/07 06:22:18;;;;;;;1.10;1.00;;;;;;;36.76;18.27;98532.53;5091712;28;20501;-87
2021/06/07 06:24:46;;;;;;;0.70;0.68;;;;;;;36.76;19.52;98539.00;5091996;28;20028;-86
2021/06/07 06:27:13;;;;;;;0.63;0.63;;;;;;;37.03;18.88;98535.56;5090733;28;20439;-85
2021/06/07 06:29:40;;;;;;;1.02;0.75;;;;;;;37.11;18.36;98536.63;5077670;28;20058;-85
2021/06/07 06:32:08;;;;;;;1.00;0.80;;;;;;;36.57;19.59;98532.91;5083022;28;20036;-86
2021/06/07 06:34:35;;;;;;;1.15;0.70;;;;;;;36.79;20.22;98538.00;5091575;28;20089;-86
2021/06/07 06:37:01;;;;;;;0.68;0.60;;;;;;;37.47;20.04;98539.94;5080907;28;20029;-86
2021/06/07 06:39:27;;;;;;;0.63;0.63;;;;;;;38.13;19.17;98531.50;5087557;28;20032;-87
2021/06/07 06:41:53;;;;;;;1.33;0.85;;;;;;;38.53;18.84;98522.38;5090288;28;20038;-87
2021/06/07 06:47:32;;;;;;;1.60;0.60;;;;;;;38.72;17.81;98527.63;5089416;28;20113;-88
2021/06/07 06:49:58;;;;;;;0.75;0.70;;;;;;;38.64;18.57;98524.47;5092983;28;20119;-88
2021/06/07 06:52:25;;;;;;;1.27;0.80;;;;;;;38.46;18.30;98527.88;5093325;28;20480;-87
2021/06/07 06:54:51;;;;;;;5.85;2.20;;;;;;;38.61;18.55;98537.78;5091049;28;20059;-87
2021/06/07 06:57:17;;;;;;;0.77;0.70;;;;;;;38.67;18.88;98532.78;5083930;28;20362;-88
2021/06/07 06:59:43;;;;;;;1.08;0.98;;;;;;;38.78;18.47;98534.13;5092528;28;20487;-88
2021/06/07 07:02:09;;;;;;;0.63;0.63;;;;;;;38.92;18.26;98536.69;5101174;28;20110;-88
2021/06/07 07:04:36;;;;;;;2.33;0.70;;;;;;;38.84;18.34;98541.41;5102004;28;20127;-86
2021/06/07 07:07:02;;;;;;;1.13;0.80;;;;;;;38.64;18.35;98535.94;5090926;28;20457;-86
2021/06/07 07:09:28;;;;;;;0.70;0.70;;;;;;;38.56;18.70;98544.31;5079883;28;20365;-86
2021/06/07 07:11:54;;;;;;;1.20;0.75;;;;;;;38.40;18.15;98542.22;5089581;28;20500;-88
2021/06/07 07:14:20;;;;;;;1.10;0.70;;;;;;;38.84;18.52;98538.53;5076459;28;20481;-87
2021/06/07 07:16:47;;;;;;;1.25;0.88;;;;;;;38.93;18.46;98543.25;5083643;28;20431;-86
2021/06/07 07:19:13;;;;;;;0.75;0.75;;;;;;;38.97;18.50;98538.78;5092595;28;20040;-87
2021/06/07 07:21:39;;;;;;;0.82;0.70;;;;;;;39.21;17.34;98547.59;5086746;28;20400;-87
2021/06/07 07:24:06;;;;;;;1.15;0.98;;;;;;;38.99;18.53;98538.25;5090981;28;20483;-86
2021/06/07 07:26:32;;;;;;;0.80;0.80;;;;;;;37.94;18.52;98541.91;5091291;28;20024;-86
2021/06/07 07:28:58;;;;;;;1.02;0.93;;;;;;;37.67;19.29;98543.38;5085054;28;20077;-88
2021/06/07 07:31:24;;;;;;;1.95;0.88;;;;;;;37.50;20.78;98548.31;5086202;28;20028;-87
2021/06/07 07:33:50;;;;;;;0.70;0.68;;;;;;;38.18;18.40;98547.94;5080482;28;20036;-87
2021/06/07 07:36:16;;;;;;;1.65;0.80;;;;;;;37.99;19.70;98546.88;5083187;28;20035;-86
2021/06/07 07:38:42;;;;;;;1.60;1.00;;;;;;;36.31;21.08;98545.69;5093931;28;20024;-86
2021/06/07 07:41:11;;;;;;;0.75;0.75;;;;;;;35.54;22.19;98545.69;5082573;28;20032;-88
2021/06/07 07:43:37;;;;;;;1.45;1.00;;;;;;;36.45;19.24;98539.88;5088357;28;20021;-88
2021/06/07 07:46:04;;;;;;;0.88;0.88;;;;;;;37.09;19.51;98550.69;5087819;28;20032;-88
2021/06/07 07:48:30;;;;;;;0.70;0.70;;;;;;;37.60;20.10;98549.63;5088313;28;20121;-86
2021/06/07 07:50:56;;;;;;;0.65;0.65;;;;;;;38.20;19.63;98553.16;5089762;28;20072;-87
2021/06/07 07:53:24;;;;;;;0.73;0.73;;;;;;;38.62;18.71;98541.44;5089036;28;20545;-87
2021/06/07 07:55:52;;;;;;;1.00;0.80;;;;;;;38.47;18.39;98553.19;5093444;28;20032;-88
2021/06/07 07:58:18;;;;;;;0.98;0.80;;;;;;;37.11;17.51;98547.34;5086685;28;20034;-86
2021/06/07 08:00:47;;;;;;;1.10;0.52;;;;;;;36.92;18.06;98549.03;5082699;28;20036;-86
2021/06/07 08:03:13;;;;;;;1.23;0.60;;;;;;;37.17;17.64;98556.72;5093869;28;20036;-86
2021/06/07 08:05:39;;;;;;;0.60;0.60;;;;;;;37.34;18.14;98554.72;5089491;28;20511;-86
2021/06/07 08:08:06;;;;;;;2.13;0.60;;;;;;;37.16;18.89;98547.34;5085670;28;20042;-86
2021/06/07 08:10:32;;;;;;;2.58;0.80;;;;;;;36.78;18.21;98547.09;5092258;28;20114;-85
2021/06/07 08:13:01;;;;;;;2.15;0.68;;;;;;;35.26;18.39;98551.81;5086832;28;20380;-84
2021/06/07 08:15:28;;;;;;;0.60;0.60;;;;;;;34.74;18.47;98539.41;5094939;28;20074;-87
2021/06/07 08:17:54;;;;;;;1.00;0.65;;;;;;;34.31;20.03;98537.38;5088535;28;20033;-88
2021/06/07 08:20:21;;;;;;;0.88;0.80;;;;;;;33.77;20.81;98543.69;5087420;28;20422;-87
2021/06/07 08:22:50;;;;;;;2.65;0.77;;;;;;;34.68;18.67;98555.63;5088345;28;20036;-85
2021/06/07 08:25:17;;;;;;;0.70;0.60;;;;;;;35.90;18.50;98547.88;5088021;28;20963;-84
2021/06/07 08:27:44;;;;;;;1.48;0.70;;;;;;;36.56;17.19;98547.72;5091165;28;20086;-87
2021/06/07 08:30:11;;;;;;;0.63;0.60;;;;;;;36.08;18.87;98541.06;5089603;28;20035;-86
2021/06/07 08:32:38;;;;;;;2.33;0.60;;;;;;;35.92;18.26;98548.94;5084190;28;20075;-85
2021/06/07 08:35:09;;;;;;;0.60;0.60;;;;;;;35.76;18.88;98546.69;5093849;28;20103;-85
2021/06/07 08:37:37;;;;;;;0.82;0.80;;;;;;;35.29;16.52;98552.88;5090401;28;20079;-85
2021/06/07 08:40:09;;;;;;;1.52;0.82;;;;;;;34.91;16.81;98547.41;5092894;28;20484;-86
2021/06/07 08:42:41;;;;;;;1.05;0.65;;;;;;;35.28;16.98;98548.47;5091659;28;20044;-86
2021/06/07 08:45:12;;;;;;;0.68;0.45;;;;;;;35.32;19.18;98546.16;5087716;28;20041;-85
2021/06/07 08:47:43;;;;;;;0.60;0.60;;;;;;;35.84;17.53;98544.97;5092188;28;20519;-84
2021/06/07 08:50:11;;;;;;;0.70;0.70;;;;;;;35.43;17.65;98546.28;5087354;28;20100;-86
2021/06/07 08:52:37;;;;;;;1.42;0.57;;;;;;;35.94;16.75;98549.22;5086333;28;20136;-85
2021/06/07 08:55:05;;;;;;;0.60;0.60;;;;;;;36.34;16.20;98528.28;5082937;28;20047;-86
2021/06/07 08:57:40;;;;;;;0.80;0.80;;;;;;;34.13;19.51;98539.66;5084761;28;20024;-87
2021/06/07 09:00:07;;;;;;;4.55;0.80;;;;;;;33.72;19.90;98544.38;5092410;28;20173;-89
2021/06/07 09:02:35;;;;;;;0.82;0.73;;;;;;;34.62;17.67;98543.38;5088987;28;20028;-86
2021/06/07 09:05:05;;;;;;;0.73;0.60;;;;;;;34.56;17.39;98538.88;5082487;28;20040;-85
2021/06/07 09:07:31;;;;;;;0.60;0.57;;;;;;;35.08;18.05;98534.19;5085267;28;20024;-87
2021/06/07 09:10:10;;;;;;;0.70;0.70;;;;;;;33.87;15.82;98543.09;5090739;28;20480;-87
2021/06/07 09:12:38;;;;;;;0.73;0.50;;;;;;;34.95;15.63;98543.06;5078120;28;20028;-86
2021/06/07 09:15:04;;;;;;;1.20;1.10;;;;;;;36.01;13.47;98528.03;5088392;28;20039;-90
2021/06/07 09:17:30;;;;;;;0.93;0.60;;;;;;;36.84;13.56;98537.25;5086577;28;20117;-86
2021/06/07 09:20:18;;;;;;;0.50;0.50;;;;;;;37.56;13.95;98534.75;5083398;28;20099;-87
2021/06/07 09:22:56;;;;;;;0.63;0.50;;;;;;;35.64;13.54;98529.97;5079459;28;20073;-87
2021/06/07 09:25:26;;;;;;;0.70;0.60;;;;;;;34.86;15.50;98534.63;5089351;28;20031;-87
2021/06/07 09:28:15;;;;;;;0.50;0.50;;;;;;;35.48;15.36;98536.22;5085694;28;20407;-86
2021/06/07 09:30:51;;;;;;;1.15;0.40;;;;;;;36.12;12.92;98528.13;5095040;28;20034;-86
2021/06/07 09:33:21;;;;;;;0.85;0.40;;;;;;;37.21;11.65;98529.41;5088796;28;20039;-86
2021/06/07 09:36:04;;;;;;;2.15;0.40;;;;;;;37.93;10.63;98526.00;5090406;28;20024;-85
2021/06/07 09:38:30;;;;;;;0.47;0.38;;;;;;;38.59;11.73;98517.44;5081773;28;20039;-86
2021/06/07 09:41:01;;;;;;;0.45;0.45;;;;;;;38.43;12.02;98518.22;5089055;28;20024;-85
2021/06/07 09:43:45;;;;;;;0.40;0.40;;;;;;;37.45;14.47;98529.00;5079291;28;20063;-86
2021/06/07 09:46:11;;;;;;;1.98;0.50;;;;;;;36.80;13.06;98522.41;5084479;28;20056;-83
2021/06/07 09:48:37;;;;;;;1.08;0.43;;;;;;;36.68;13.65;98521.56;5088253;28;20509;-83
2021/06/07 09:51:04;;;;;;;0.40;0.40;;;;;;;35.60;14.25;98513.03;5087783;28;20032;-82
2021/06/07 09:53:48;;;;;;;0.77;0.68;;;;;;;34.77;14.01;98522.56;5093773;28;20028;-82
2021/06/07 09:56:15;;;;;;;1.13;0.57;;;;;;;34.06;16.72;98513.16;5094329;28;20033;-83
2021/06/07 09:58:44;;;;;;;0.60;0.60;;;;;;;34.34;14.67;98510.75;5091709;28;20035;-82
2021/06/07 10:01:21;;;;;;;0.50;0.50;;;;;;;35.70;15.00;98508.72;5093159;28;20032;-83
2021/06/07 10:03:55;;;;;;;0.50;0.50;;;;;;;36.72;13.44;98519.22;5093251;28;20036;-84
2021/06/07 10:06:23;;;;;;;0.50;0.50;;;;;;;36.77;13.87;98522.63;5080910;28;20052;-83
2021/06/07 10:08:59;;;;;;;0.68;0.50;;;;;;;37.38;13.54;98503.72;5091627;28;20028;-83
2021/06/07 10:11:32;;;;;;;0.55;0.52;;;;;;;34.18;14.97;98510.47;5088017;28;20035;-84
2021/06/07 10:14:14;;;;;;;0.70;0.70;;;;;;;32.65;18.99;98523.44;5089982;28;20024;-87
2021/06/07 10:16:59;;;;;;;1.08;0.70;;;;;;;33.02;16.98;98515.50;5090404;28;20020;-85
2021/06/07 10:19:36;;;;;;;0.60;0.60;;;;;;;33.40;17.18;98518.34;5084648;28;20049;-86
2021/06/07 10:22:05;;;;;;;0.68;0.60;;;;;;;33.60;17.66;98514.88;5087497;28;20078;-89
2021/06/07 10:24:31;;;;;;;0.85;0.60;;;;;;;35.00;14.79;98510.19;5081081;28;20020;-86
2021/06/07 10:26:58;;;;;;;0.73;0.50;;;;;;;36.39;13.55;98510.38;5084142;28;20016;-86
2021/06/07 10:29:47;;;;;;;0.93;0.60;;;;;;;36.36;12.55;98508.53;5083386;28;20484;-86
2021/06/07 10:32:24;;;;;;;0.82;0.50;;;;;;;36.61;12.79;98496.28;5080482;28;20040;-86
2021/06/07 10:34:53;;;;;;;0.43;0.43;;;;;;;35.48;14.48;98507.66;5086072;28;20036;-86
2021/06/07 10:37:20;;;;;;;0.60;0.60;;;;;;;34.89;15.09;98499.41;5083389;28;20024;-86
2021/06/07 10:39:47;;;;;;;1.90;0.55;;;;;;;34.31;16.16;98503.19;5091468;28;20032;-88
2021/06/07 10:42:17;;;;;;;0.50;0.50;;;;;;;34.12;15.51;98499.00;5084482;28;20025;-87
2021/06/07 10:44:53;;;;;;;0.65;0.65;;;;;;;33.74;16.04;98505.56;5081859;28;20028;-90
2021/06/07 10:47:22;;;;;;;0.40;0.40;;;;;;;34.62;14.98;98500.56;5077250;28;20107;-84
2021/06/07 10:50:05;;;;;;;1.52;0.50;;;;;;;35.39;13.71;98500.03;5082070;28;20028;-84
2021/06/07 10:52:42;;;;;;;1.38;0.45;;;;;;;37.02;11.94;98505.34;5090085;28;20027;-86
2021/06/07 10:55:12;;;;;;;0.40;0.40;;;;;;;38.64;13.13;98495.75;5082700;28;20446;-87
2021/06/07 10:58:00;;;;;;;0.65;0.65;;;;;;;37.63;13.90;98488.41;5083690;28;20054;-85
2021/06/07 11:00:37;;;;;;;1.70;0.60;;;;;;;36.93;13.22;98501.94;5086640;28;20067;-87
2021/06/07 11:03:17;;;;;;;0.80;0.70;;;;;;;33.94;17.02;98502.81;5080282;28;20037;-89
2021/06/07 11:05:45;;;;;;;0.90;0.83;;;;;;;33.86;16.40;98501.66;5089920;28;20115;-86
2021/06/07 11:08:22;;;;;;;0.70;0.70;;;;;;;32.88;15.43;98506.88;5079382;28;20032;-84
2021/06/07 11:11:04;;;;;;;3.03;1.30;;;;;;;34.44;15.18;98500.00;5076214;28;20441;-87
2021/06/07 11:13:46;;;;;;;1.05;0.70;;;;;;;35.50;14.69;98497.31;5084384;28;20036;-86
2021/06/07 11:16:25;;;;;;;0.68;0.68;;;;;;;34.50;17.09;98495.97;5083061;28;20111;-87
2021/06/07 11:19:12;;;;;;;2.92;0.57;;;;;;;35.38;15.22;98478.50;5077592;28;20048;-87
2021/06/07 11:21:43;;;;;;;0.70;0.50;;;;;;;34.69;14.85;98491.59;5087843;28;20043;-87
2021/06/07 11:24:39;;;;;;;1.02;0.70;;;;;;;35.84;13.84;98487.03;5091673;28;20373;-87
2021/06/07 11:27:26;;;;;;;0.70;0.70;;;;;;;35.05;13.71;98492.38;5081082;28;20523;-87
2021/06/07 11:30:17;;;;;;;0.68;0.60;;;;;;;37.08;12.57;98480.41;5084960;28;20036;-85
2021/06/07 11:32:43;;;;;;;0.68;0.55;;;;;;;37.31;12.97;98482.06;5092049;28;20047;-85
2021/06/07 11:35:42;;;;;;;0.47;0.47;;;;;;;36.61;12.84;98478.31;5088534;28;20029;-86
2021/06/07 11:38:36;;;;;;;0.60;0.60;;;;;;;34.25;14.17;98473.81;5096916;28;20032;-85
2021/06/07 11:41:06;;;;;;;0.60;0.60;;;;;;;35.37;15.26;98468.34;5095663;28;20115;-85
2021/06/07 11:43:47;;;;;;;0.60;0.60;;;;;;;36.07;12.72;98471.66;5096791;28;20085;-86
2021/06/07 11:46:33;;;;;;;0.40;0.40;;;;;;;37.31;12.73;98475.53;5095071;28;20063;-85